Time;durP1;ratioP1;P1;durP2;ratioP2;P2;SDS_P1;SDS_P2;PMS_P1;PMS_P2;Temp;Humidity;BMP_temperature;BMP_pressure;BME280_temperature;BME280_humidity;BME280_pressure;Samples;Min_cycle;Max_cycle;Signal;HPM_P1;HPM_P2
2021/04/05 00:01:27;;;;;;;69.53;45.63;;;231.30;1766.40;;;;;;4992163;28;20030;-68
2021/04/05 00:03:52;;;;;;;65.38;39.65;;;231.30;1766.40;;;;;;4991936;28;20027;-67
2021/04/05 00:06:18;;;;;;;72.03;44.50;;;231.30;1766.40;;;;;;4992265;28;20058;-69
2021/04/05 00:08:45;;;;;;;70.53;45.80;;;231.30;1766.40;;;;;;4992129;28;20125;-67
2021/04/05 00:11:11;;;;;;;101.50;60.78;;;231.30;1740.80;;;;;;4992284;28;20073;-67
2021/04/05 00:13:40;;;;;;;117.03;65.82;;;231.30;1740.80;;;;;;4992487;28;20116;-66
2021/04/05 00:16:06;;;;;;;95.53;56.35;;;231.20;1740.80;;;;;;4978681;28;20042;-66
2021/04/05 00:18:31;;;;;;;75.93;46.00;;;231.20;1740.80;;;;;;4992245;28;20466;-66
2021/04/05 00:21:08;;;;;;;69.47;42.35;;;231.10;1766.40;;;;;;4992158;28;20469;-66
2021/04/05 00:23:34;;;;;;;67.22;39.55;;;231.00;1766.40;;;;;;4996016;28;20015;-66
2021/04/05 00:26:00;;;;;;;60.47;37.92;;;231.00;1766.40;;;;;;4995710;28;20033;-67
2021/04/05 00:28:26;;;;;;;66.68;40.28;;;231.00;1766.40;;;;;;4996003;28;20109;-67
2021/04/05 00:30:53;;;;;;;56.05;34.92;;;230.90;1766.40;;;;;;4995744;28;20101;-67
2021/04/05 00:33:20;;;;;;;57.83;34.78;;;230.90;1740.80;;;;;;4995859;28;20026;-68
2021/04/05 00:35:46;;;;;;;54.80;33.95;;;230.80;1740.80;;;;;;4995531;28;20034;-67
2021/04/05 00:38:13;;;;;;;84.68;49.60;;;230.80;1766.40;;;;;;4995704;28;20046;-67
2021/04/05 00:40:51;;;;;;;52.15;33.88;;;230.70;1817.60;;;;;;4995721;28;20037;-67
2021/04/05 00:43:18;;;;;;;65.05;37.47;;;230.70;1868.80;;;;;;4995395;28;20226;-68
2021/04/05 00:45:45;;;;;;;52.05;31.17;;;230.60;1817.60;;;;;;4995486;28;20109;-68
2021/04/05 00:48:16;;;;;;;49.35;29.55;;;230.60;1792.00;;;;;;4995144;28;20069;-69
2021/04/05 00:50:56;;;;;;;39.30;24.33;;;;;;;;;;4995737;28;20481;-69
2021/04/05 00:53:26;;;;;;;48.45;27.17;;;205.60;1792.00;;;;;;4990435;28;20257;-66
2021/04/05 00:55:52;;;;;;;32.10;21.73;;;205.70;1792.00;;;;;;4992659;28;20042;-68
2021/04/05 00:58:19;;;;;;;62.97;36.55;;;205.60;1817.60;;;;;;4995256;28;20397;-67
2021/04/05 01:00:53;;;;;;;67.10;35.95;;;230.40;1792.00;;;;;;4995136;28;20022;-67
2021/04/05 01:03:24;;;;;;;59.92;36.05;;;230.40;1766.40;;;;;;4995383;28;20503;-72
2021/04/05 01:05:55;;;;;;;63.47;39.75;;;230.50;1766.40;;;;;;4995243;28;20084;-72
2021/04/05 01:08:22;;;;;;;69.60;41.83;;;230.40;1766.40;;;;;;4995326;28;20624;-71
2021/04/05 01:10:48;;;;;;;77.53;42.90;;;230.50;1766.40;;;;;;4995456;28;20390;-67
2021/04/05 01:13:14;;;;;;;64.85;36.15;;;230.50;1766.40;;;;;;4994136;28;20027;-68
2021/04/05 01:15:41;;;;;;;56.80;32.75;;;230.60;1740.80;;;;;;4995158;28;20165;-69
2021/04/05 01:18:07;;;;;;;54.10;32.63;;;230.40;1740.80;;;;;;4989282;28;20101;-66
2021/04/05 01:20:33;;;;;;;44.40;26.60;;;230.40;1740.80;;;;;;4981503;28;20027;-67
2021/04/05 01:23:00;;;;;;;54.55;31.92;;;205.70;1766.40;;;;;;4981796;28;20033;-66
2021/04/05 01:25:27;;;;;;;85.25;53.33;;;;;;;;;;4994547;28;20394;-68
2021/04/05 01:27:53;;;;;;;36.08;26.42;;;205.60;1766.40;;;;;;4994463;28;20014;-66
2021/04/05 01:30:31;;;;;;;37.53;27.35;;;205.30;1817.60;;;;;;4994610;28;20018;-66
2021/04/05 01:33:01;;;;;;;28.77;19.80;;;;;;;;;;4976072;28;20030;-67
2021/04/05 01:35:27;;;;;;;44.85;27.25;;;179.80;1894.40;;;;;;4994071;28;20045;-67
2021/04/05 01:37:54;;;;;;;45.28;30.50;;;179.90;1894.40;;;;;;4994145;28;20038;-68
2021/04/05 01:40:20;;;;;;;32.13;23.42;;;179.70;1920.00;;;;;;4975955;28;20045;-67
2021/04/05 01:42:46;;;;;;;24.38;16.83;;;179.80;1894.40;;;;;;4994188;28;20065;-68
2021/04/05 01:45:16;;;;;;;35.85;27.35;;;179.50;1945.60;;;;;;4994150;28;20545;-66
2021/04/05 01:47:42;;;;;;;35.20;24.67;;;179.70;1920.00;;;;;;4993779;28;20022;-66
2021/04/05 01:50:08;;;;;;;31.63;23.50;;;179.70;1945.60;;;;;;4994060;28;20026;-67
2021/04/05 01:52:38;;;;;;;45.85;31.15;;;179.70;1920.00;;;;;;4994200;28;20050;-66
2021/04/05 01:55:04;;;;;;;33.10;23.70;;;179.90;1894.40;;;;;;4994019;28;20038;-66
2021/04/05 01:57:30;;;;;;;38.90;24.88;;;180.10;1868.80;;;;;;4994000;28;20465;-68
2021/04/05 01:59:56;;;;;;;25.08;19.13;;;204.80;1843.20;;;;;;4994075;28;20057;-67
2021/04/05 02:02:21;;;;;;;32.78;21.10;;;204.90;1843.20;;;;;;4993902;28;20031;-68
2021/04/05 02:04:47;;;;;;;28.10;19.38;;;205.00;1843.20;;;;;;4993748;28;20048;-67
2021/04/05 02:07:14;;;;;;;33.85;21.17;;;205.00;1843.20;;;;;;4993751;28;20085;-67
2021/04/05 02:09:39;;;;;;;40.80;23.95;;;205.20;1792.00;;;;;;4994004;28;20051;-66
2021/04/05 02:12:06;;;;;;;54.30;31.88;;;204.90;1817.60;;;;;;4994165;28;20030;-66
2021/04/05 02:14:33;;;;;;;35.50;22.30;;;204.90;1843.20;;;;;;4994152;28;20030;-68
2021/04/05 02:16:59;;;;;;;32.33;20.27;;;204.80;1843.20;;;;;;4992895;28;20408;-69
2021/04/05 02:19:24;;;;;;;44.97;27.52;;;204.80;1843.20;;;;;;4990556;28;20505;-73
2021/04/05 02:21:51;;;;;;;54.22;30.58;;;204.80;1868.80;;;;;;4992695;28;20030;-72
2021/04/05 02:24:18;;;;;;;37.55;24.63;;;204.80;1843.20;;;;;;4993574;28;20018;-72
2021/04/05 02:26:47;;;;;;;48.40;30.52;;;180.00;1868.80;;;;;;4993353;28;20152;-70
2021/04/05 02:29:19;;;;;;;59.00;35.28;;;180.00;1894.40;;;;;;4993460;28;20496;-70
2021/04/05 02:31:45;;;;;;;87.30;47.75;;;179.90;1920.00;;;;;;4993622;28;20019;-68
2021/04/05 02:34:14;;;;;;;59.38;36.50;;;179.80;1920.00;;;;;;4993619;28;20022;-69
2021/04/05 02:36:41;;;;;;;46.47;29.23;;;179.70;1971.20;;;;;;4993780;28;20097;-69
2021/04/05 02:39:10;;;;;;;77.05;45.67;;;179.80;1945.60;;;;;;4993767;28;20058;-72
2021/04/05 02:41:41;;;;;;;123.13;65.72;;;179.70;1945.60;;;;;;4993668;28;20160;-72
2021/04/05 02:44:08;;;;;;;98.28;50.70;;;179.70;1945.60;;;;;;4984653;28;20023;-71
2021/04/05 02:46:36;;;;;;;48.00;30.00;;;179.70;1920.00;;;;;;4975146;28;20121;-72
2021/04/05 02:49:06;;;;;;;45.20;27.63;;;179.50;1945.60;;;;;;4986773;28;20055;-72
2021/04/05 02:51:33;;;;;;;34.88;21.92;;;179.60;1945.60;;;;;;4987706;28;20026;-71
2021/04/05 02:54:00;;;;;;;32.00;21.10;;;179.60;1945.60;;;;;;4993729;28;20667;-71
2021/04/05 02:56:27;;;;;;;27.73;18.58;;;179.50;1945.60;;;;;;4993603;28;20499;-73
2021/04/05 02:58:55;;;;;;;28.70;19.58;;;;;;;;;;4979873;28;20026;-74
2021/04/05 03:01:22;;;;;;;26.60;19.67;;;;;;;;;;4993466;28;20030;-73
2021/04/05 03:03:48;;;;;;;30.05;18.75;;;;;;;;;;4993432;28;20023;-73
2021/04/05 03:06:19;;;;;;;31.10;20.17;;;;;;;;;;4993502;28;20124;-73
2021/04/05 03:08:46;;;;;;;29.63;21.10;;;;;;;;;;4993289;28;20033;-73
2021/04/05 03:11:14;;;;;;;27.52;18.15;;;;;;;;;;4993422;28;20022;-73
2021/04/05 03:13:41;;;;;;;37.92;24.27;;;;;;;;;;4993475;28;20101;-70
2021/04/05 03:16:18;;;;;;;29.17;20.55;;;;;;;;;;4993038;28;20055;-71
2021/04/05 03:18:45;;;;;;;37.22;21.83;;;;;;;;;;4979999;28;20050;-72
2021/04/05 03:21:12;;;;;;;32.80;20.42;;;;;;;;;;4992896;28;20373;-71
2021/04/05 03:23:39;;;;;;;42.53;23.95;;;;;;;;;;4993177;28;20022;-72
2021/04/05 03:26:04;;;;;;;39.63;25.05;;;179.20;1920.00;;;;;;4993164;28;20076;-71
2021/04/05 03:28:30;;;;;;;127.85;56.65;;;;;;;;;;4993299;28;20027;-71
2021/04/05 03:31:04;;;;;;;63.05;34.78;;;;;;;;;;4993009;28;20031;-72
2021/04/05 03:33:49;;;;;;;30.90;21.08;;;;;;;;;;4993175;28;20492;-68
2021/04/05 03:36:18;;;;;;;26.23;19.45;;;;;;;;;;4992914;28;20038;-68
2021/04/05 03:38:44;;;;;;;25.52;16.45;;;;;;;;;;4992537;28;20098;-68
2021/04/05 03:41:16;;;;;;;25.23;16.55;;;;;;;;;;4992829;28;20098;-68
2021/04/05 03:43:56;;;;;;;25.23;15.38;;;;;;;;;;4992901;28;20028;-68
2021/04/05 03:46:28;;;;;;;24.73;16.42;;;154.20;1945.60;;;;;;4992953;28;20026;-67
2021/04/05 03:49:26;;;;;;;23.75;14.88;;;154.10;1945.60;;;;;;4979589;28;20510;-68
2021/04/05 03:52:12;;;;;;;21.83;14.40;;;;;;;;;;4913735;29;20058;-69
2021/04/05 03:54:48;;;;;;;23.60;17.40;;;154.20;1945.60;;;;;;4901484;29;20052;-68
2021/04/05 03:57:18;;;;;;;32.03;22.10;;;154.00;1971.20;;;;;;4917613;29;20902;-68
2021/04/05 03:59:47;;;;;;;35.67;24.02;;;;;;;;;;4917963;29;20111;-68
2021/04/05 04:02:24;;;;;;;42.08;27.73;;;;;;;;;;4917536;29;20075;-71
2021/04/05 04:05:05;;;;;;;41.50;28.05;;;;;;;;;;4917730;29;20028;-72
2021/04/05 04:07:39;;;;;;;42.08;29.15;;;;;;;;;;4917583;29;20111;-72
2021/04/05 04:10:10;;;;;;;42.22;27.77;;;;;;;;;;4917742;29;20055;-70
2021/04/05 04:12:36;;;;;;;44.00;29.55;;;;;;;;;;4917718;29;20029;-71
2021/04/05 04:15:04;;;;;;;54.38;34.53;;;;;;;;;;4917510;29;20048;-71
2021/04/05 04:17:33;;;;;;;63.95;37.92;;;;;;;;;;4917279;29;20167;-71
2021/04/05 04:20:03;;;;;;;65.90;40.60;;;;;;;;;;4917429;29;20067;-72
2021/04/05 04:22:32;;;;;;;78.55;46.50;;;;;;;;;;4917356;29;20030;-72
2021/04/05 04:24:58;;;;;;;93.15;50.75;;;;;;;;;;4917523;29;20032;-70
2021/04/05 04:27:25;;;;;;;89.15;49.67;;;;;;;;;;4917257;29;20492;-70
2021/04/05 04:29:57;;;;;;;94.45;52.05;;;;;;;;;;4993263;28;20121;-70
2021/04/05 04:32:23;;;;;;;90.68;52.83;;;;;;;;;;4996163;28;20026;-70
2021/04/05 04:34:50;;;;;;;91.07;52.60;;;;;;;;;;4996276;28;20054;-69
2021/04/05 04:37:16;;;;;;;87.20;51.72;;;;;;;;;;4996176;28;20022;-70
2021/04/05 04:39:42;;;;;;;93.25;55.85;;;;;;;;;;4995813;28;20022;-70
2021/04/05 04:42:09;;;;;;;85.40;50.28;;;;;;;;;;4996259;28;20026;-69
2021/04/05 04:44:35;;;;;;;83.38;49.92;;;;;;;;;;4983807;28;20041;-70
2021/04/05 04:47:01;;;;;;;86.07;51.20;;;;;;;;;;4994680;28;20025;-70
2021/04/05 04:49:28;;;;;;;65.18;39.38;;;;;;;;;;4996022;28;20441;-70
2021/04/05 04:51:54;;;;;;;62.65;39.40;;;;;;;;;;4995917;28;20037;-69
2021/04/05 04:54:20;;;;;;;59.13;34.95;;;;;;;;;;4995861;28;20027;-71
2021/04/05 04:56:46;;;;;;;54.80;33.20;;;;;;;;;;4995950;28;20358;-69
2021/04/05 04:59:14;;;;;;;51.85;30.35;;;;;;;;;;4995703;28;20021;-73
2021/04/05 05:01:41;;;;;;;46.33;30.02;;;;;;;;;;4978367;28;20117;-70
2021/04/05 05:04:09;;;;;;;60.90;38.67;;;179.30;1868.80;;;;;;4995642;28;20022;-69
2021/04/05 05:06:36;;;;;;;65.65;43.83;;;179.50;1868.80;;;;;;4995399;28;20101;-70
2021/04/05 05:09:03;;;;;;;81.22;55.15;;;;;;;;;;4994913;28;20496;-71
2021/04/05 05:11:30;;;;;;;103.85;64.97;;;;;;;;;;4995717;28;20027;-70
2021/04/05 05:13:57;;;;;;;122.65;77.75;;;;;;;;;;4995383;28;20025;-70
2021/04/05 05:16:23;;;;;;;111.00;71.57;;;;;;;;;;4995346;28;20156;-70
2021/04/05 05:18:51;;;;;;;89.40;57.13;;;;;;;;;;4995414;28;20469;-70
2021/04/05 05:21:33;;;;;;;102.20;63.17;;;180.00;1817.60;;;;;;4995411;28;20054;-70
2021/04/05 05:24:05;;;;;;;95.82;61.75;;;179.80;1843.20;;;;;;4995351;28;20026;-70
2021/04/05 05:26:34;;;;;;;97.57;58.88;;;179.80;1868.80;;;;;;4987798;28;20465;-70
2021/04/05 05:29:06;;;;;;;87.78;56.22;;;180.00;1868.80;;;;;;4989592;28;20039;-69
2021/04/05 05:31:33;;;;;;;;;;;180.10;1792.00;;;;;;4995761;28;20018;-70
2021/04/05 05:34:01;;;;;;;88.88;55.08;;;204.80;1792.00;;;;;;4995136;28;19906;-71
2021/04/05 05:36:27;;;;;;;80.43;49.05;;;180.10;1817.60;;;;;;4994954;28;20110;-70
2021/04/05 05:38:53;;;;;;;78.00;48.75;;;179.80;1843.20;;;;;;4994920;28;20481;-70
2021/04/05 05:41:27;;;;;;;75.03;46.88;;;179.80;1894.40;;;;;;4994994;28;20033;-73
2021/04/05 05:44:04;;;;;;;74.22;48.58;;;180.10;1817.60;;;;;;4982440;28;20022;-72
2021/04/05 05:46:57;;;;;;;68.72;39.33;;;204.80;1817.60;;;;;;4995117;28;20030;-72
2021/04/05 05:49:33;;;;;;;82.97;50.50;;;204.90;1792.00;;;;;;4994723;28;20026;-72
2021/04/05 05:52:05;;;;;;;91.97;53.85;;;205.10;1766.40;;;;;;4994538;28;20106;-73
2021/04/05 05:54:36;;;;;;;97.85;63.45;;;205.20;1843.20;;;;;;4993516;28;20026;-73
2021/04/05 05:57:21;;;;;;;89.32;56.83;;;205.50;1792.00;;;;;;4991637;28;20109;-71
2021/04/05 05:59:53;;;;;;;98.53;59.10;;;205.50;1766.40;;;;;;4986719;28;20451;-72
2021/04/05 06:02:38;;;;;;;93.63;54.72;;;205.70;1740.80;;;;;;4994618;28;20023;-72
2021/04/05 06:05:13;;;;;;;81.32;52.65;;;230.50;1740.80;;;;;;4994626;28;20479;-72
2021/04/05 06:08:14;;;;;;;97.50;57.00;;;230.60;1715.20;;;;;;4994349;28;20146;-72
2021/04/05 06:11:06;;;;;;;103.37;65.67;;;230.80;1689.60;;;;;;4915320;29;20087;-72
2021/04/05 06:13:50;;;;;;;122.10;73.82;;;230.90;1664.00;;;;;;4915344;29;20119;-72
2021/04/05 06:16:34;;;;;;;122.53;80.57;;;231.00;1664.00;;;;;;4914981;29;20232;-72
2021/04/05 06:18:59;;;;;;;141.45;82.82;;;231.00;1664.00;;;;;;4914990;29;20400;-71
2021/04/05 06:21:49;;;;;;;125.60;83.07;;;231.20;1638.40;;;;;;4915257;29;20032;-71
2021/04/05 06:24:45;;;;;;;115.15;75.82;;;231.30;1612.80;;;;;;4915262;29;20042;-71
2021/04/05 06:27:14;;;;;;;109.55;66.47;;;256.10;1612.80;;;;;;4852776;29;20056;-71
2021/04/05 06:30:04;;;;;;;102.57;61.45;;;256.10;1561.60;;;;;;4846039;29;20061;-71
2021/04/05 06:32:38;;;;;;;96.57;59.03;;;256.20;1561.60;;;;;;4845081;29;20046;-71
2021/04/05 06:35:48;;;;;;;99.13;60.75;;;256.20;1510.40;;;;;;4840487;29;20091;-72
2021/04/05 06:38:32;;;;;;;105.97;67.65;;;256.10;1561.60;;;;;;4767879;30;20451;-72
2021/04/05 06:41:23;;;;;;;90.68;56.97;;;256.20;1561.60;;;;;;4768055;30;20074;-71
2021/04/05 06:44:28;;;;;;;86.53;51.17;;;256.20;1536.00;;;;;;4755880;30;20024;-69
2021/04/05 06:47:15;;;;;;;115.25;63.08;;;256.50;1510.40;;;;;;4752212;29;20044;-68
2021/04/05 06:49:47;;;;;;;66.20;43.80;;;256.80;1484.80;;;;;;4768013;30;20039;-70
2021/04/05 06:52:37;;;;;;;66.28;39.58;;;256.90;1433.60;;;;;;4767859;30;20079;-70
2021/04/05 06:55:14;;;;;;;64.47;40.13;;;256.80;1459.20;;;;;;4767663;30;20508;-69
2021/04/05 06:58:07;;;;;;;48.65;34.60;;;256.90;1484.80;;;;;;4767818;30;20044;-69
2021/04/05 07:00:58;;;;;;;92.55;50.28;;;281.70;1459.20;;;;;;4767633;30;20446;-69
2021/04/05 07:03:58;;;;;;;99.33;55.13;;;281.70;1510.40;;;;;;4778403;29;20050;-69
2021/04/05 07:06:39;;;;;;;138.32;67.18;;;281.90;1510.40;;;;;;4821889;29;20282;-70
2021/04/05 07:09:42;;;;;;;67.00;41.22;;;282.10;1433.60;;;;;;4821761;29;20133;-69
2021/04/05 07:12:25;;;;;;;62.50;37.45;;;282.00;1408.00;;;;;;4821874;29;20050;-72
2021/04/05 07:15:30;;;;;;;89.88;52.53;;;282.30;1408.00;;;;;;4915634;29;20044;-71
2021/04/05 07:18:07;;;;;;;61.20;36.92;;;282.50;1356.80;;;;;;4914355;29;20112;-70
2021/04/05 07:21:10;;;;;;;64.10;38.80;;;307.30;1331.20;;;;;;4914183;29;20042;-69
2021/04/05 07:23:53;;;;;;;60.83;38.80;;;307.40;1331.20;;;;;;4940345;28;20035;-71
2021/04/05 07:26:28;;;;;;;55.35;35.72;;;307.60;1382.40;;;;;;4958397;28;20062;-70
2021/04/05 07:29:14;;;;;;;67.65;38.78;;;307.70;1305.60;;;;;;4971432;28;20535;-71
2021/04/05 07:31:55;;;;;;;59.63;35.22;;;307.80;1331.20;;;;;;4959633;28;20053;-70
2021/04/05 07:34:32;;;;;;;51.78;35.17;;;307.90;1280.00;;;;;;4971297;28;20070;-70
2021/04/05 07:37:19;;;;;;;55.00;35.88;;;307.90;1280.00;;;;;;4971306;28;20368;-71
2021/04/05 07:39:59;;;;;;;61.08;36.95;;;308.00;1280.00;;;;;;4966842;28;20035;-70
2021/04/05 07:42:50;;;;;;;43.47;31.38;;;308.00;1280.00;;;;;;4964344;28;20851;-71
2021/04/05 07:45:29;;;;;;;37.57;27.23;;;332.80;1254.40;;;;;;4967120;28;20588;-71
2021/04/05 07:48:06;;;;;;;61.53;35.55;;;332.90;1203.20;;;;;;4963469;28;20509;-71
2021/04/05 07:50:38;;;;;;;53.58;31.88;;;332.90;1228.80;;;;;;4971064;28;20054;-70
2021/04/05 07:53:06;;;;;;;;;;;333.10;1228.80;;;;;;4959861;28;20422;-70
2021/04/05 07:55:32;;;;;;;42.92;26.00;;;333.20;1152.00;;;;;;4987550;28;19914;-69
2021/04/05 07:58:09;;;;;;;27.00;17.73;;;333.20;1152.00;;;;;;4982426;28;20050;-68
2021/04/05 08:00:48;;;;;;;23.35;11.52;;;333.40;1075.20;;;;;;4991156;28;20027;-68
2021/04/05 08:03:22;;;;;;;29.35;14.25;;;333.40;1024.00;;;;;;4992761;28;20388;-68
2021/04/05 08:05:57;;;;;;;25.40;15.00;;;333.70;1075.20;;;;;;4987588;28;20079;-68
2021/04/05 08:08:37;;;;;;;10.77;7.63;;;358.40;1049.60;;;;;;4984982;28;20015;-67
2021/04/05 08:11:21;;;;;;;34.55;22.00;;;358.50;921.60;;;;;;4979560;28;20030;-67
2021/04/05 08:14:21;;;;;;;20.00;12.25;;;358.40;1024.00;;;;;;4991722;28;20084;-67
2021/04/05 08:16:54;;;;;;;26.55;14.18;;;358.60;1024.00;;;;;;4984352;28;20066;-68
2021/04/05 08:19:25;;;;;;;39.97;21.35;;;358.80;998.40;;;;;;4992552;28;20604;-68
2021/04/05 08:22:01;;;;;;;21.70;11.48;;;358.80;947.20;;;;;;4992623;28;20023;-68
2021/04/05 08:24:41;;;;;;;16.77;7.65;;;358.80;972.80;;;;;;4992311;28;20037;-67
2021/04/05 08:27:10;;;;;;;22.67;10.27;;;358.90;947.20;;;;;;4992386;28;20022;-68
2021/04/05 08:29:49;;;;;;;14.90;7.47;;;359.00;947.20;;;;;;4992254;28;20055;-69
2021/04/05 08:32:18;;;;;;;12.60;7.20;;;359.00;896.00;;;;;;4992531;28;20031;-70
2021/04/05 08:35:20;;;;;;;25.25;11.68;;;359.20;921.60;;;;;;4992532;28;20142;-70
2021/04/05 08:38:11;;;;;;;31.70;13.45;;;384.00;921.60;;;;;;4992013;28;20033;-67
2021/04/05 08:40:41;;;;;;;12.43;9.07;;;384.20;972.80;;;;;;4992361;28;20031;-67
2021/04/05 08:43:10;;;;;;;35.90;15.25;;;384.40;921.60;;;;;;4993954;28;20026;-66
2021/04/05 08:46:01;;;;;;;14.52;10.07;;;384.20;972.80;;;;;;4995923;28;20153;-67
2021/04/05 08:48:31;;;;;;;19.58;9.60;;;384.50;972.80;;;;;;4995777;28;20026;-67
2021/04/05 08:51:00;;;;;;;23.63;11.30;;;384.70;947.20;;;;;;4995737;28;20030;-66
2021/04/05 08:53:32;;;;;;;37.85;16.52;;;384.70;947.20;;;;;;4995600;28;20469;-67
2021/04/05 08:55:59;;;;;;;22.40;11.27;;;384.70;947.20;;;;;;4995785;28;20038;-67
2021/04/05 08:58:31;;;;;;;21.02;11.48;;;384.80;947.20;;;;;;4995516;28;20026;-68
2021/04/05 09:01:02;;;;;;;27.58;16.52;;;409.60;947.20;;;;;;4978398;28;20018;-68
2021/04/05 09:03:32;;;;;;;22.15;12.40;;;409.70;972.80;;;;;;4995544;28;20026;-68
2021/04/05 09:05:58;;;;;;;46.90;23.65;;;410.00;921.60;;;;;;4995670;28;20022;-67
2021/04/05 09:08:26;;;;;;;33.75;21.50;;;409.90;921.60;;;;;;4995238;28;20034;-69
2021/04/05 09:11:03;;;;;;;17.67;9.57;;;410.00;896.00;;;;;;4995422;28;20033;-67
2021/04/05 09:13:33;;;;;;;16.67;9.18;;;410.00;921.60;;;;;;4995255;28;20018;-68
2021/04/05 09:16:02;;;;;;;15.52;9.02;;;410.30;921.60;;;;;;4994871;28;20448;-72
2021/04/05 09:18:46;;;;;;;21.23;15.02;;;410.30;921.60;;;;;;4995208;28;20097;-72
2021/04/05 09:21:24;;;;;;;14.30;9.80;;;435.20;896.00;;;;;;4995262;28;20023;-71
2021/04/05 09:24:20;;;;;;;21.10;13.07;;;435.40;870.40;;;;;;4993699;28;20030;-71
2021/04/05 09:26:51;;;;;;;15.10;10.40;;;435.60;870.40;;;;;;4995150;28;20393;-72
2021/04/05 09:29:20;;;;;;;;;;;435.60;870.40;;;;;;4977857;28;20022;-72
2021/04/05 09:32:05;;;;;;;8.60;5.90;;;435.80;870.40;;;;;;4995033;28;19913;-70
2021/04/05 09:34:43;;;;;;;16.38;9.63;;;436.10;793.60;;;;;;4994750;28;20026;-71
2021/04/05 09:37:20;;;;;;;29.02;16.83;;;460.90;819.20;;;;;;4994509;28;20089;-69
2021/04/05 09:40:05;;;;;;;16.45;9.05;;;461.10;793.60;;;;;;4990366;28;20098;-68
2021/04/05 09:43:03;;;;;;;11.65;7.65;;;563.80;640.00;;;;;;4992992;28;20121;-70
2021/04/05 09:45:43;;;;;;;12.27;9.13;;;768.60;358.40;;;;;;4994670;28;20033;-69
2021/04/05 09:48:28;;;;;;;16.00;10.43;;;;;;;;;;4994583;28;20019;-69
2021/04/05 09:51:38;;;;;;;5.45;4.85;;;820.00;307.20;;;;;;4994474;28;20026;-69
2021/04/05 09:54:32;;;;;;;14.45;10.40;;;870.90;256.00;;;;;;4896245;29;20071;-71
2021/04/05 09:57:07;;;;;;;6.20;5.13;;;896.10;256.00;;;;;;4880624;29;20522;-71
2021/04/05 09:59:40;;;;;;;7.28;6.53;;;;;;;;;;4896356;29;20044;-70
2021/04/05 10:02:10;;;;;;;24.33;17.92;;;896.80;256.00;;;;;;4896591;29;20097;-69
2021/04/05 10:04:38;;;;;;;11.80;9.48;;;921.80;281.60;;;;;;4896750;29;20444;-68
2021/04/05 10:07:06;;;;;;;42.58;31.73;;;;;;;;;;4896677;29;20087;-69
2021/04/05 10:09:33;;;;;;;11.98;8.60;;;947.50;281.60;;;;;;4896554;29;20396;-74
2021/04/05 10:12:05;;;;;;;29.48;18.27;;;922.30;281.60;;;;;;4896582;29;20032;-70
2021/04/05 10:14:33;;;;;;;40.67;26.13;;;947.80;281.60;;;;;;4896571;29;20443;-71
2021/04/05 10:16:59;;;;;;;35.97;22.15;;;947.50;281.60;;;;;;4896352;29;20057;-75
2021/04/05 10:19:40;;;;;;;11.18;6.32;;;973.00;307.20;;;;;;4896477;29;20076;-70
2021/04/05 10:22:14;;;;;;;6.85;5.47;;;973.50;307.20;;;;;;4896542;29;20041;-72
2021/04/05 10:24:45;;;;;;;7.05;6.35;;;973.20;307.20;;;;;;4883451;29;20041;-74
2021/04/05 10:27:17;;;;;;;12.10;10.07;;;972.80;307.20;;;;;;4913131;28;20045;-74
2021/04/05 10:29:44;;;;;;;6.75;4.85;;;;;;;;;;4974786;28;20047;-74
2021/04/05 10:32:14;;;;;;;7.75;6.05;;;973.60;307.20;;;;;;4974817;28;20038;-72
2021/04/05 10:34:44;;;;;;;9.48;7.10;;;973.70;307.20;;;;;;4973164;28;20026;-70
2021/04/05 10:37:17;;;;;;;9.73;5.55;;;998.80;332.80;;;;;;4974493;28;20027;-72
2021/04/05 10:39:48;;;;;;;5.00;4.50;;;999.20;332.80;;;;;;4974451;28;20477;-70
2021/04/05 10:42:25;;;;;;;9.32;6.13;;;998.80;332.80;;;;;;4974294;28;20023;-72
2021/04/05 10:44:57;;;;;;;5.72;5.13;;;973.60;307.20;;;;;;4974287;28;20023;-71
2021/04/05 10:47:31;;;;;;;16.08;12.55;;;973.50;307.20;;;;;;4973576;28;20043;-74
2021/04/05 10:49:59;;;;;;;9.15;6.30;;;973.50;307.20;;;;;;4973634;28;20019;-73
2021/04/05 10:52:39;;;;;;;15.75;11.00;;;999.20;332.80;;;;;;4986730;28;20035;-74
2021/04/05 10:55:17;;;;;;;7.60;6.53;;;1049.90;358.40;;;;;;4973778;28;20093;-75
2021/04/05 10:57:45;;;;;;;6.50;4.35;;;1024.90;332.80;;;;;;4971709;28;20042;-72
2021/04/05 11:00:17;;;;;;;11.63;7.75;;;1024.30;332.80;;;;;;4973701;28;20078;-72
2021/04/05 11:02:47;;;;;;;8.75;7.72;;;;;;;;;;4971989;28;20501;-73
2021/04/05 11:05:18;;;;;;;8.75;6.32;;;1024.40;332.80;;;;;;4972856;28;20035;-71
2021/04/05 11:07:47;;;;;;;7.80;4.90;;;1024.40;332.80;;;;;;4973386;28;20031;-73
2021/04/05 11:10:22;;;;;;;15.10;13.55;;;1024.50;332.80;;;;;;4973430;28;20023;-70
2021/04/05 11:13:12;;;;;;;10.20;7.28;;;1049.80;358.40;;;;;;4972389;28;20678;-78
2021/04/05 11:15:41;;;;;;;6.95;6.25;;;999.00;332.80;;;;;;4972626;28;20022;-75
2021/04/05 11:18:15;;;;;;;9.15;7.57;;;999.00;332.80;;;;;;4992642;28;20037;-77
2021/04/05 11:20:49;;;;;;;7.22;5.22;;;999.10;332.80;;;;;;4990438;28;20010;-74
2021/04/05 11:23:17;;;;;;;16.90;13.10;;;999.30;332.80;;;;;;4967140;28;20031;-73
2021/04/05 11:25:51;;;;;;;8.77;7.47;;;1024.00;332.80;;;;;;4990385;28;20026;-71
2021/04/05 11:28:29;;;;;;;11.68;10.50;;;998.90;332.80;;;;;;4975383;28;20030;-71
2021/04/05 11:31:00;;;;;;;22.42;19.50;;;998.80;332.80;;;;;;4981523;28;20014;-72
2021/04/05 11:33:29;;;;;;;18.05;15.18;;;998.90;332.80;;;;;;4992025;28;20532;-73
2021/04/05 11:35:57;;;;;;;6.05;5.45;;;998.80;332.80;;;;;;4992115;28;20541;-72
2021/04/05 11:38:24;;;;;;;22.38;17.25;;;973.50;307.20;;;;;;4992123;28;20030;-71
2021/04/05 11:41:00;;;;;;;14.13;11.63;;;973.60;307.20;;;;;;4992168;28;20519;-71
2021/04/05 11:43:31;;;;;;;18.08;12.57;;;973.60;307.20;;;;;;4992089;28;20014;-71
2021/04/05 11:46:04;;;;;;;19.80;14.02;;;973.60;307.20;;;;;;4992031;28;20036;-70
2021/04/05 11:48:30;;;;;;;24.75;15.60;;;973.20;307.20;;;;;;4992152;28;20045;-72
2021/04/05 11:50:56;;;;;;;14.75;9.18;;;998.50;332.80;;;;;;4992244;28;20075;-70
2021/04/05 11:53:40;;;;;;;22.63;16.77;;;972.80;307.20;;;;;;4991761;28;20022;-70
2021/04/05 11:56:15;;;;;;;24.15;17.40;;;948.10;281.60;;;;;;4990308;28;20027;-68
2021/04/05 11:59:12;;;;;;;18.00;11.73;;;947.80;281.60;;;;;;4991973;28;20046;-69
2021/04/05 12:01:56;;;;;;;15.23;10.70;;;922.50;281.60;;;;;;4989055;28;20037;-68
2021/04/05 12:04:29;;;;;;;19.38;13.77;;;;;;;;;;4991952;28;20088;-69
2021/04/05 12:07:04;;;;;;;11.18;10.05;;;896.40;256.00;;;;;;4992352;28;20034;-70
2021/04/05 12:09:37;;;;;;;11.90;9.82;;;870.90;281.60;;;;;;4990742;28;20042;-70
2021/04/05 12:12:06;;;;;;;20.77;11.85;;;870.50;281.60;;;;;;4992348;28;20041;-70
2021/04/05 12:14:33;;;;;;;16.23;12.52;;;845.40;307.20;;;;;;4992329;28;20026;-68
2021/04/05 12:17:01;;;;;;;12.43;7.72;;;845.10;307.20;;;;;;4992926;28;20054;-71
2021/04/05 12:19:37;;;;;;;31.95;21.27;;;844.90;307.20;;;;;;4996331;28;20037;-69
2021/04/05 12:22:05;;;;;;;27.30;18.90;;;;;;;;;;4994707;28;20026;-70
2021/04/05 12:24:33;;;;;;;37.97;26.05;;;;;;;;;;4994330;28;20389;-70
2021/04/05 12:27:02;;;;;;;21.73;16.38;;;743.00;384.00;;;;;;4996168;28;20018;-69
2021/04/05 12:29:29;;;;;;;46.92;26.08;;;;;;;;;;4995651;28;20026;-71
2021/04/05 12:31:56;;;;;;;19.00;12.07;;;;;;;;;;4995696;28;20080;-70
2021/04/05 12:34:26;;;;;;;12.90;9.70;;;;;;;;;;4977572;28;20030;-71
2021/04/05 12:36:53;;;;;;;13.02;10.02;;;691.30;460.80;;;;;;4994902;28;20018;-69
2021/04/05 12:39:19;;;;;;;17.08;11.55;;;666.50;460.80;;;;;;4993738;28;20036;-71
2021/04/05 12:41:47;;;;;;;10.30;7.57;;;640.90;486.40;;;;;;4995374;28;20023;-70
2021/04/05 12:44:28;;;;;;;11.13;8.05;;;640.60;486.40;;;;;;4995410;28;20072;-69
2021/04/05 12:46:55;;;;;;;19.85;11.07;;;640.70;486.40;;;;;;4995614;28;20224;-69
2021/04/05 12:49:28;;;;;;;22.00;14.38;;;640.20;512.00;;;;;;4995799;28;20054;-70
2021/04/05 12:52:03;;;;;;;71.32;61.92;;;615.30;563.20;;;;;;4995365;28;20081;-70
2021/04/05 12:54:31;;;;;;;28.20;23.55;;;615.20;588.80;;;;;;4996001;28;20412;-70
2021/04/05 12:57:03;;;;;;;22.20;12.15;;;666.30;486.40;;;;;;4994337;28;20041;-71
2021/04/05 12:59:30;;;;;;;25.73;14.73;;;717.40;460.80;;;;;;4996124;28;20033;-71
2021/04/05 13:02:18;;;;;;;67.47;31.92;;;691.20;460.80;;;;;;4995460;28;20109;-71